Time;durP1;ratioP1;P1;durP2;ratioP2;P2;SDS_P1;SDS_P2;PMS_P1;PMS_P2;Temp;Humidity;BMP_temperature;BMP_pressure;BME280_temperature;BME280_humidity;BME280_pressure;Samples;Min_cycle;Max_cycle;Signal;HPM_P1;HPM_P2
2021/09/05 00:00:24;;;;;;;11.40;6.72;;;13.00;99.90;;;;;;4983432;28;20046;-72
2021/09/05 00:02:49;;;;;;;14.93;7.72;;;13.00;99.90;;;;;;4984270;28;20057;-73
2021/09/05 00:05:15;;;;;;;15.30;6.95;;;13.00;99.90;;;;;;4980826;28;20035;-73
2021/09/05 00:07:40;;;;;;;11.05;6.70;;;13.00;99.90;;;;;;4981792;28;20169;-73
2021/09/05 00:10:06;;;;;;;16.95;8.32;;;13.00;99.90;;;;;;4984838;28;20085;-73
2021/09/05 00:12:34;;;;;;;13.98;7.05;;;13.00;99.90;;;;;;4978950;28;20026;-73
2021/09/05 00:15:00;;;;;;;15.10;7.50;;;12.90;99.90;;;;;;4987459;28;20027;-73
2021/09/05 00:17:25;;;;;;;16.30;7.20;;;12.90;99.90;;;;;;4986852;28;20389;-72
2021/09/05 00:19:51;;;;;;;12.35;6.93;;;12.90;99.90;;;;;;4978350;28;20042;-72
2021/09/05 00:22:19;;;;;;;16.92;7.18;;;12.80;99.90;;;;;;4990363;28;20453;-73
2021/09/05 00:24:48;;;;;;;16.38;7.32;;;12.80;99.90;;;;;;4980146;28;20039;-73
2021/09/05 00:27:14;;;;;;;14.02;6.57;;;12.70;99.90;;;;;;4977296;28;20062;-72
2021/09/05 00:29:39;;;;;;;13.65;7.13;;;12.70;99.90;;;;;;4984701;28;20138;-72
2021/09/05 00:32:05;;;;;;;13.50;6.95;;;12.70;99.90;;;;;;4988022;28;20019;-73
2021/09/05 00:34:30;;;;;;;14.15;7.15;;;12.70;99.90;;;;;;4986675;28;20031;-73
2021/09/05 00:36:56;;;;;;;10.98;6.22;;;12.60;99.90;;;;;;4988113;28;20037;-73
2021/09/05 00:39:21;;;;;;;12.18;7.43;;;12.60;99.90;;;;;;4985879;28;20065;-73
2021/09/05 00:41:47;;;;;;;17.25;6.93;;;12.50;99.90;;;;;;4984881;28;20037;-72
2021/09/05 00:44:13;;;;;;;15.98;7.10;;;12.50;99.90;;;;;;4987042;28;20397;-73
2021/09/05 00:46:40;;;;;;;13.52;7.40;;;12.50;99.90;;;;;;4987662;28;20171;-72
2021/09/05 00:49:07;;;;;;;13.27;6.47;;;12.50;99.90;;;;;;4986605;28;20031;-72
2021/09/05 00:51:36;;;;;;;15.75;7.43;;;12.40;99.90;;;;;;4985501;28;20089;-73
2021/09/05 00:54:04;;;;;;;13.38;6.38;;;12.40;99.90;;;;;;5002366;28;20049;-74
2021/09/05 00:56:33;;;;;;;14.55;6.53;;;12.30;99.90;;;;;;4986292;28;20038;-72
2021/09/05 00:59:06;;;;;;;15.13;7.00;;;12.30;99.90;;;;;;4987145;28;20038;-72
2021/09/05 01:01:32;;;;;;;13.40;6.63;;;12.30;99.90;;;;;;4986644;28;20109;-73
2021/09/05 01:03:58;;;;;;;13.73;6.88;;;12.20;99.90;;;;;;4989585;28;20125;-72
2021/09/05 01:06:24;;;;;;;11.68;6.57;;;12.20;99.90;;;;;;4980455;28;20113;-72
2021/09/05 01:08:52;;;;;;;14.93;6.40;;;12.20;99.90;;;;;;4987548;28;20018;-72
2021/09/05 01:11:18;;;;;;;12.18;6.45;;;12.20;99.90;;;;;;4986764;28;20159;-72
2021/09/05 01:13:44;;;;;;;15.35;6.65;;;12.20;99.90;;;;;;4989111;28;20673;-72
2021/09/05 01:16:30;;;;;;;13.07;6.65;;;12.20;99.90;;;;;;4985505;28;20137;-73
2021/09/05 01:19:09;;;;;;;14.18;6.15;;;12.20;99.90;;;;;;4988263;28;20132;-72
2021/09/05 01:21:35;;;;;;;17.20;6.28;;;12.10;99.90;;;;;;4988409;28;20036;-72
2021/09/05 01:24:01;;;;;;;11.60;6.57;;;12.10;99.90;;;;;;4983488;28;20233;-72
2021/09/05 01:26:29;;;;;;;13.52;6.85;;;12.00;99.90;;;;;;4978546;28;20038;-73
2021/09/05 01:28:56;;;;;;;14.98;6.78;;;12.00;99.90;;;;;;4987527;28;20054;-73
2021/09/05 01:31:22;;;;;;;12.50;7.03;;;12.00;99.90;;;;;;4987492;28;20441;-72
2021/09/05 01:33:48;;;;;;;12.20;6.72;;;12.00;99.90;;;;;;4986565;28;20461;-72
2021/09/05 01:36:15;;;;;;;14.18;7.07;;;12.00;99.90;;;;;;4983150;28;20034;-73
2021/09/05 01:38:41;;;;;;;13.27;6.35;;;11.90;99.90;;;;;;4987957;28;20034;-73
2021/09/05 01:41:06;;;;;;;11.50;6.53;;;11.90;99.90;;;;;;4985056;28;20105;-72
2021/09/05 01:43:32;;;;;;;13.40;7.03;;;11.90;99.90;;;;;;4988093;28;20088;-73
2021/09/05 01:45:57;;;;;;;16.23;6.75;;;11.80;99.90;;;;;;4979001;28;20110;-72
2021/09/05 01:48:23;;;;;;;13.52;6.68;;;11.80;99.90;;;;;;4982597;28;20054;-72
2021/09/05 01:50:49;;;;;;;12.48;6.57;;;11.80;99.90;;;;;;4986447;28;20022;-72
2021/09/05 01:53:15;;;;;;;18.67;7.50;;;11.80;99.90;;;;;;4987653;28;20366;-73
2021/09/05 01:55:40;;;;;;;15.18;7.35;;;11.80;99.90;;;;;;4986118;28;20034;-72
2021/09/05 01:58:05;;;;;;;14.00;6.55;;;11.80;99.90;;;;;;4986339;28;20052;-72
2021/09/05 02:00:31;;;;;;;12.30;6.85;;;11.70;99.90;;;;;;4983398;28;20056;-72
2021/09/05 02:02:57;;;;;;;14.30;7.10;;;11.70;99.90;;;;;;4985417;28;20022;-73
2021/09/05 02:05:22;;;;;;;12.68;6.45;;;11.70;99.90;;;;;;4987286;28;20042;-72
2021/09/05 02:07:48;;;;;;;13.60;6.82;;;11.70;99.90;;;;;;4985753;28;20050;-72
2021/09/05 02:10:13;;;;;;;14.00;7.35;;;11.70;99.90;;;;;;4986724;28;20062;-73
2021/09/05 02:12:38;;;;;;;12.18;6.22;;;11.70;99.90;;;;;;4981476;28;20400;-73
2021/09/05 02:15:05;;;;;;;12.80;6.82;;;11.60;99.90;;;;;;4985549;28;20065;-73
2021/09/05 02:17:30;;;;;;;15.40;6.65;;;11.70;99.90;;;;;;4985920;28;20381;-73
2021/09/05 02:19:56;;;;;;;13.15;6.93;;;11.70;99.90;;;;;;4986463;28;20034;-72
2021/09/05 02:22:21;;;;;;;11.45;6.70;;;11.70;99.90;;;;;;4984624;28;20130;-72
2021/09/05 02:24:47;;;;;;;16.25;7.03;;;11.70;99.90;;;;;;4983638;28;20491;-74
2021/09/05 02:27:12;;;;;;;13.13;7.05;;;11.70;99.90;;;;;;4984315;28;20030;-72
2021/09/05 02:29:38;;;;;;;13.30;7.03;;;11.80;99.90;;;;;;4991196;28;20113;-73
2021/09/05 02:32:04;;;;;;;15.48;7.28;;;11.80;99.90;;;;;;4987840;28;20385;-71
2021/09/05 02:34:29;;;;;;;13.98;7.40;;;11.80;99.90;;;;;;4989942;28;20400;-72
2021/09/05 02:36:56;;;;;;;16.52;8.52;;;11.80;99.90;;;;;;4990293;28;20045;-73
2021/09/05 02:39:21;;;;;;;14.77;7.70;;;11.90;99.90;;;;;;4990230;28;20500;-72
2021/09/05 02:41:47;;;;;;;13.68;7.63;;;11.90;99.90;;;;;;4988478;28;20054;-72
2021/09/05 02:44:12;;;;;;;14.63;7.85;;;11.90;99.90;;;;;;4985842;28;20362;-73
2021/09/05 02:46:38;;;;;;;13.45;7.60;;;12.00;99.90;;;;;;4986883;28;20027;-73
2021/09/05 02:49:03;;;;;;;21.33;8.32;;;12.00;99.90;;;;;;4987602;28;20187;-73
2021/09/05 02:51:29;;;;;;;15.48;8.75;;;12.00;99.90;;;;;;4989625;28;20033;-73
2021/09/05 02:53:54;;;;;;;19.67;8.77;;;12.00;99.90;;;;;;4989366;28;20444;-73
2021/09/05 02:56:20;;;;;;;19.58;8.68;;;12.10;99.90;;;;;;4986516;28;20030;-73
2021/09/05 02:58:45;;;;;;;16.02;8.20;;;12.00;99.90;;;;;;4989821;28;20045;-73
2021/09/05 03:01:11;;;;;;;19.58;8.73;;;12.00;99.90;;;;;;4988446;28;20564;-73
2021/09/05 03:03:36;;;;;;;17.35;7.95;;;12.10;99.90;;;;;;4986970;28;20088;-73
2021/09/05 03:06:02;;;;;;;18.60;8.60;;;12.10;99.90;;;;;;4988036;28;20015;-73
2021/09/05 03:08:27;;;;;;;15.68;8.32;;;12.10;99.90;;;;;;4988149;28;20057;-73
2021/09/05 03:10:53;;;;;;;14.90;7.97;;;12.10;99.90;;;;;;4990079;28;20049;-72
2021/09/05 03:13:18;;;;;;;13.68;8.13;;;12.10;99.90;;;;;;4989094;28;20061;-72
2021/09/05 03:15:44;;;;;;;16.70;8.80;;;12.10;99.90;;;;;;4987429;28;20034;-73
2021/09/05 03:18:09;;;;;;;18.10;9.05;;;12.10;99.90;;;;;;4987952;28;20037;-73
2021/09/05 03:20:35;;;;;;;19.58;9.23;;;12.10;99.90;;;;;;4988909;28;20121;-73
2021/09/05 03:23:00;;;;;;;22.30;9.02;;;12.10;99.90;;;;;;4989600;28;20422;-72
2021/09/05 03:25:26;;;;;;;15.25;8.55;;;12.10;99.90;;;;;;4988019;28;20037;-73
2021/09/05 03:27:51;;;;;;;17.30;9.63;;;12.10;99.90;;;;;;4987715;28;20104;-73
2021/09/05 03:30:17;;;;;;;15.75;8.13;;;12.10;99.90;;;;;;4987426;28;20068;-74
2021/09/05 03:32:43;;;;;;;17.83;9.18;;;12.10;99.90;;;;;;4990521;28;20561;-72
2021/09/05 03:35:10;;;;;;;17.42;8.80;;;12.00;99.90;;;;;;4988813;28;20445;-72
2021/09/05 03:37:36;;;;;;;15.55;7.82;;;12.00;99.90;;;;;;4988928;28;20030;-73
2021/09/05 03:40:02;;;;;;;17.02;8.70;;;11.90;99.90;;;;;;4985981;28;20084;-72
2021/09/05 03:42:28;;;;;;;13.77;8.30;;;11.90;99.90;;;;;;4984221;28;20113;-72
2021/09/05 03:44:53;;;;;;;17.13;7.82;;;11.90;99.90;;;;;;4986556;28;20125;-73
2021/09/05 03:47:18;;;;;;;15.68;8.85;;;11.90;99.90;;;;;;4988835;28;20026;-72
2021/09/05 03:49:44;;;;;;;15.20;8.65;;;11.90;99.90;;;;;;4988238;28;20109;-73
2021/09/05 03:52:10;;;;;;;19.23;8.48;;;11.80;99.90;;;;;;4986896;28;20033;-72
2021/09/05 03:54:35;;;;;;;17.58;7.43;;;11.80;99.90;;;;;;4991421;28;20455;-73
2021/09/05 03:57:01;;;;;;;14.73;7.80;;;11.70;99.90;;;;;;4986224;28;20030;-73
2021/09/05 03:59:26;;;;;;;13.05;7.65;;;11.70;99.90;;;;;;4986891;28;20061;-73
2021/09/05 04:01:52;;;;;;;15.20;8.25;;;11.70;99.90;;;;;;4988700;28;20068;-73
2021/09/05 04:04:17;;;;;;;15.80;8.13;;;11.70;99.90;;;;;;4985166;28;20050;-73
2021/09/05 04:06:48;;;;;;;16.98;8.43;;;11.70;99.90;;;;;;4988228;28;20424;-72
2021/09/05 04:10:08;;;;;;;17.90;8.90;;;11.60;99.90;;;;;;4983765;28;20026;-73
2021/09/05 04:12:05;;;;;;;17.90;8.18;;;11.60;99.90;;;;;;4986444;28;20038;-72
2021/09/05 04:14:31;;;;;;;21.35;9.82;;;11.60;99.90;;;;;;4983182;28;20053;-73
2021/09/05 04:16:56;;;;;;;19.40;8.68;;;11.60;99.90;;;;;;4986866;28;20117;-73
2021/09/05 04:19:21;;;;;;;21.25;9.68;;;11.50;99.90;;;;;;4985468;28;20034;-73
2021/09/05 04:21:47;;;;;;;15.25;8.60;;;11.50;99.90;;;;;;4974166;28;20042;-73
2021/09/05 04:24:12;;;;;;;16.83;9.38;;;11.50;99.90;;;;;;4987042;28;20030;-72
2021/09/05 04:26:38;;;;;;;16.90;8.88;;;11.50;99.90;;;;;;4984070;28;20121;-73
2021/09/05 04:29:03;;;;;;;16.23;8.63;;;11.50;99.90;;;;;;4981608;28;20027;-73
2021/09/05 04:31:29;;;;;;;16.73;8.48;;;11.50;99.90;;;;;;4986843;28;20030;-72
2021/09/05 04:33:54;;;;;;;15.18;8.52;;;11.50;99.90;;;;;;4988767;28;20065;-73
2021/09/05 04:36:20;;;;;;;19.85;8.55;;;11.40;99.90;;;;;;4985390;28;20041;-72
2021/09/05 04:38:45;;;;;;;19.08;8.68;;;11.40;99.90;;;;;;4985124;28;20031;-72
2021/09/05 04:41:11;;;;;;;17.73;9.30;;;11.50;99.90;;;;;;4979886;28;20547;-73
2021/09/05 04:43:36;;;;;;;19.40;10.07;;;11.50;99.90;;;;;;4983865;28;20034;-72
2021/09/05 04:46:02;;;;;;;15.55;8.18;;;11.50;99.90;;;;;;4980076;28;20039;-73
2021/09/05 04:48:28;;;;;;;16.00;8.65;;;11.50;99.90;;;;;;4987629;28;20026;-72
2021/09/05 04:50:53;;;;;;;15.32;7.95;;;11.50;99.90;;;;;;4986408;28;20493;-72
2021/09/05 04:53:19;;;;;;;18.83;9.65;;;11.60;99.90;;;;;;4986899;28;20018;-72
2021/09/05 04:55:44;;;;;;;20.00;9.32;;;11.50;99.90;;;;;;4977034;28;20161;-72
2021/09/05 04:58:10;;;;;;;20.75;9.70;;;11.50;99.90;;;;;;4983345;28;20099;-72
2021/09/05 05:00:35;;;;;;;15.50;9.40;;;11.60;99.90;;;;;;4981111;28;20046;-73
2021/09/05 05:03:00;;;;;;;18.95;10.35;;;11.60;99.90;;;;;;4984940;28;20023;-74
2021/09/05 05:05:26;;;;;;;20.27;10.05;;;11.70;99.90;;;;;;4987555;28;20041;-73
2021/09/05 05:07:54;;;;;;;23.05;9.48;;;11.80;99.90;;;;;;4986750;28;20081;-72
2021/09/05 05:10:20;;;;;;;21.00;9.65;;;11.90;99.90;;;;;;4985465;28;20452;-73
2021/09/05 05:12:46;;;;;;;15.98;8.38;;;11.90;99.90;;;;;;4988106;28;20042;-73
2021/09/05 05:15:11;;;;;;;21.02;8.77;;;12.00;99.90;;;;;;4985226;28;20441;-73
2021/09/05 05:17:38;;;;;;;13.50;8.13;;;12.10;99.90;;;;;;4978554;28;20023;-72
2021/09/05 05:20:04;;;;;;;13.52;7.00;;;12.10;99.90;;;;;;4983356;28;20084;-72
2021/09/05 05:22:29;;;;;;;18.08;8.45;;;12.20;99.90;;;;;;4987314;28;20032;-73
2021/09/05 05:24:55;;;;;;;12.57;7.68;;;12.30;99.90;;;;;;4983091;28;20026;-73
2021/09/05 05:27:20;;;;;;;14.95;7.95;;;12.30;99.90;;;;;;4985791;28;20077;-72
2021/09/05 05:29:46;;;;;;;16.95;7.43;;;12.40;99.90;;;;;;4986612;28;20018;-72
2021/09/05 05:32:11;;;;;;;14.25;6.93;;;12.40;99.90;;;;;;4982565;28;20086;-72
2021/09/05 05:34:37;;;;;;;17.73;6.97;;;12.40;99.90;;;;;;4980746;28;20027;-73
2021/09/05 05:37:03;;;;;;;12.45;6.10;;;12.50;99.90;;;;;;4986250;28;20061;-72
2021/09/05 05:39:30;;;;;;;9.27;5.78;;;12.50;99.90;;;;;;4978188;28;20031;-73
2021/09/05 05:41:55;;;;;;;13.63;6.72;;;12.50;99.90;;;;;;4979180;28;20030;-73
2021/09/05 05:44:21;;;;;;;10.57;6.03;;;12.60;99.90;;;;;;4987114;28;20495;-73
2021/09/05 05:46:46;;;;;;;8.88;5.60;;;12.60;99.90;;;;;;4979744;28;20030;-73
2021/09/05 05:49:12;;;;;;;12.65;5.32;;;12.60;99.90;;;;;;4985227;28;20089;-72
2021/09/05 05:51:37;;;;;;;12.05;5.85;;;12.60;99.90;;;;;;4987412;28;20026;-73
2021/09/05 05:54:03;;;;;;;9.48;4.90;;;12.70;99.90;;;;;;4980018;28;20130;-73
2021/09/05 05:56:28;;;;;;;6.93;4.40;;;12.70;99.90;;;;;;4987362;28;20436;-73
2021/09/05 05:58:54;;;;;;;9.70;5.18;;;12.80;99.90;;;;;;4984712;28;20713;-73
2021/09/05 06:01:19;;;;;;;6.93;4.30;;;12.80;99.90;;;;;;4985130;28;20493;-73
2021/09/05 06:03:45;;;;;;;8.77;4.93;;;12.90;99.90;;;;;;4987789;28;20054;-72
2021/09/05 06:06:13;;;;;;;6.78;3.80;;;12.90;99.90;;;;;;4980980;28;20030;-73
2021/09/05 06:08:38;;;;;;;11.77;4.30;;;12.90;99.90;;;;;;4988727;28;20532;-72
2021/09/05 06:11:04;;;;;;;5.82;3.58;;;12.90;99.90;;;;;;4982312;28;20042;-73
2021/09/05 06:13:29;;;;;;;8.95;3.55;;;13.00;99.90;;;;;;4989871;28;20524;-73
2021/09/05 06:15:55;;;;;;;7.50;3.65;;;13.00;99.90;;;;;;4988206;28;20030;-73
2021/09/05 06:18:20;;;;;;;7.60;3.70;;;13.00;99.90;;;;;;4988436;28;20221;-72
2021/09/05 06:20:46;;;;;;;6.65;3.70;;;13.10;99.90;;;;;;4990608;28;20173;-73
2021/09/05 06:23:11;;;;;;;6.00;3.45;;;13.10;99.90;;;;;;4991184;28;20053;-73
2021/09/05 06:25:37;;;;;;;6.15;3.25;;;13.20;99.90;;;;;;4988630;28;20038;-72
2021/09/05 06:28:05;;;;;;;6.88;3.45;;;13.10;99.90;;;;;;4986312;28;20031;-72
2021/09/05 06:30:31;;;;;;;6.35;3.42;;;13.20;99.90;;;;;;4989786;28;20263;-72
2021/09/05 06:32:56;;;;;;;9.00;3.65;;;13.20;99.90;;;;;;4990906;28;20026;-72
2021/09/05 06:35:22;;;;;;;9.55;3.90;;;13.30;99.90;;;;;;4987257;28;20030;-73
2021/09/05 06:37:48;;;;;;;4.68;3.05;;;13.30;99.90;;;;;;4981602;28;20027;-73
2021/09/05 06:40:14;;;;;;;7.80;3.75;;;13.40;99.90;;;;;;4990735;28;20388;-73
2021/09/05 06:42:39;;;;;;;9.65;3.53;;;13.40;99.90;;;;;;4981417;28;20111;-72
2021/09/05 06:45:05;;;;;;;7.25;4.10;;;13.50;99.90;;;;;;4984988;28;20035;-73
2021/09/05 06:47:30;;;;;;;7.50;3.20;;;13.50;99.90;;;;;;4978321;28;20474;-73
2021/09/05 06:49:56;;;;;;;6.05;3.15;;;13.60;99.90;;;;;;4987220;28;20113;-72
2021/09/05 06:52:21;;;;;;;6.93;3.60;;;13.70;99.90;;;;;;4988197;28;20614;-73
2021/09/05 06:54:47;;;;;;;11.30;3.88;;;13.80;99.90;;;;;;4986722;28;20042;-72
2021/09/05 06:57:12;;;;;;;7.30;3.30;;;13.80;99.90;;;;;;4987023;28;20042;-73
2021/09/05 06:59:38;;;;;;;4.95;3.20;;;13.90;99.90;;;;;;4988433;28;20066;-73
2021/09/05 07:02:03;;;;;;;5.60;3.08;;;13.90;99.90;;;;;;4983144;28;20073;-73
2021/09/05 07:04:29;;;;;;;7.47;3.60;;;14.00;99.90;;;;;;4985493;28;20030;-72
2021/09/05 07:06:54;;;;;;;6.80;3.30;;;14.00;99.90;;;;;;4980871;28;20026;-72
2021/09/05 07:09:38;;;;;;;7.25;3.58;;;14.10;99.90;;;;;;4984221;28;20073;-73
2021/09/05 07:12:04;;;;;;;8.05;3.70;;;14.10;99.90;;;;;;4979755;28;20416;-73
2021/09/05 07:14:32;;;;;;;6.10;3.30;;;14.10;99.90;;;;;;4985707;28;20026;-72
2021/09/05 07:17:00;;;;;;;8.82;4.45;;;14.10;99.90;;;;;;4991268;28;20030;-73
2021/09/05 07:19:26;;;;;;;6.15;2.88;;;14.10;99.90;;;;;;4991085;28;20035;-73
2021/09/05 07:21:52;;;;;;;8.43;3.38;;;14.10;99.90;;;;;;4991276;28;20038;-73
2021/09/05 07:24:17;;;;;;;6.40;3.55;;;14.10;99.90;;;;;;4990558;28;20454;-73
2021/09/05 07:26:42;;;;;;;7.18;3.85;;;14.10;99.90;;;;;;4988895;28;20030;-73
2021/09/05 07:29:11;;;;;;;8.38;4.03;;;14.20;99.90;;;;;;4982915;28;20057;-73
2021/09/05 07:31:37;;;;;;;7.10;3.63;;;14.10;99.90;;;;;;4981721;28;20030;-73
2021/09/05 07:34:02;;;;;;;10.55;3.85;;;14.20;99.90;;;;;;4986735;28;20034;-73
2021/09/05 07:36:28;;;;;;;9.70;3.83;;;14.20;99.90;;;;;;4986485;28;20018;-73
2021/09/05 07:38:54;;;;;;;13.93;4.07;;;14.20;99.90;;;;;;4987955;28;20109;-73
2021/09/05 07:41:23;;;;;;;7.50;4.30;;;14.20;99.90;;;;;;4981351;28;20026;-72
2021/09/05 07:43:51;;;;;;;8.98;4.18;;;14.30;99.90;;;;;;4987486;28;20477;-70
2021/09/05 07:46:17;;;;;;;8.00;4.43;;;14.30;99.90;;;;;;4987514;28;20034;-74
2021/09/05 07:48:42;;;;;;;8.68;3.88;;;14.30;99.90;;;;;;4987378;28;20033;-73
2021/09/05 07:51:08;;;;;;;8.45;4.85;;;14.40;99.90;;;;;;4990964;28;20429;-74
2021/09/05 07:53:33;;;;;;;8.38;4.20;;;14.40;99.90;;;;;;4978422;28;20042;-73
2021/09/05 07:55:59;;;;;;;7.78;4.15;;;14.50;99.90;;;;;;4991092;28;20038;-72
2021/09/05 07:58:27;;;;;;;7.25;4.18;;;14.60;99.90;;;;;;4987032;28;20034;-71
2021/09/05 08:00:52;;;;;;;9.43;4.03;;;14.70;99.90;;;;;;4989815;28;20046;-73
2021/09/05 08:03:18;;;;;;;7.18;4.13;;;14.80;99.90;;;;;;4982881;28;20030;-72
2021/09/05 08:05:43;;;;;;;8.20;4.18;;;15.00;99.90;;;;;;4985467;28;20101;-73
2021/09/05 08:08:09;;;;;;;7.63;3.78;;;15.10;99.90;;;;;;4990150;28;20362;-73
2021/09/05 08:10:34;;;;;;;9.50;4.75;;;15.30;99.90;;;;;;4985827;28;20027;-71
2021/09/05 08:13:00;;;;;;;9.40;4.20;;;15.40;99.90;;;;;;4989009;28;20038;-72
2021/09/05 08:15:26;;;;;;;8.00;4.25;;;15.60;99.90;;;;;;4987869;28;20034;-73
2021/09/05 08:17:51;;;;;;;7.50;3.70;;;15.70;99.90;;;;;;4988167;28;20030;-73
2021/09/05 08:20:17;;;;;;;7.13;4.10;;;15.90;99.90;;;;;;4988155;28;20033;-73
2021/09/05 08:22:45;;;;;;;8.50;4.40;;;16.00;99.90;;;;;;4985839;28;20113;-73
2021/09/05 08:25:11;;;;;;;7.30;4.10;;;16.10;99.90;;;;;;4981547;28;20084;-73
2021/09/05 08:27:37;;;;;;;8.15;3.65;;;16.20;99.90;;;;;;4984620;28;20448;-73
2021/09/05 08:30:03;;;;;;;9.20;4.43;;;16.30;99.90;;;;;;4988338;28;20030;-73
2021/09/05 08:32:29;;;;;;;11.48;4.20;;;16.40;99.90;;;;;;4986782;28;20033;-73
2021/09/05 08:35:04;;;;;;;10.15;4.45;;;16.50;99.90;;;;;;4986958;28;20063;-73
2021/09/05 08:37:30;;;;;;;9.07;4.53;;;16.50;99.90;;;;;;4987342;28;20030;-73
2021/09/05 08:39:56;;;;;;;7.88;4.93;;;16.50;99.90;;;;;;4987305;28;20034;-73
2021/09/05 08:42:27;;;;;;;9.00;4.43;;;16.50;99.90;;;;;;4987219;28;20038;-73
2021/09/05 08:44:53;;;;;;;8.95;4.68;;;16.60;99.90;;;;;;4986027;28;20479;-72
2021/09/05 08:47:20;;;;;;;8.50;4.65;;;16.60;99.90;;;;;;4986806;28;20030;-70
2021/09/05 08:49:47;;;;;;;11.35;4.88;;;16.60;99.90;;;;;;4987591;28;20084;-72
2021/09/05 08:52:13;;;;;;;13.00;4.68;;;16.50;99.90;;;;;;4978823;28;20218;-72
2021/09/05 08:54:38;;;;;;;6.95;3.92;;;16.50;99.90;;;;;;4979744;28;20045;-72
2021/09/05 08:57:05;;;;;;;11.88;5.30;;;16.60;99.90;;;;;;4987058;28;20034;-74
2021/09/05 08:59:31;;;;;;;11.63;4.47;;;16.70;99.90;;;;;;4986807;28;20141;-80
2021/09/05 09:01:59;;;;;;;8.38;4.38;;;16.80;99.90;;;;;;4986065;28;20109;-73
2021/09/05 09:04:26;;;;;;;8.48;4.22;;;16.90;99.90;;;;;;4986775;28;20113;-73
2021/09/05 09:06:52;;;;;;;9.45;4.85;;;16.90;99.90;;;;;;4983746;28;20105;-79
2021/09/05 09:09:18;;;;;;;9.13;4.75;;;16.90;99.90;;;;;;4988519;28;20596;-76
2021/09/05 09:11:54;;;;;;;7.78;4.82;;;16.90;99.90;;;;;;4979477;28;20033;-77
2021/09/05 09:14:24;;;;;;;7.78;4.47;;;17.00;99.90;;;;;;4988429;28;20026;-77
2021/09/05 09:16:50;;;;;;;11.43;4.65;;;17.20;99.90;;;;;;4986260;28;20041;-78
2021/09/05 09:19:26;;;;;;;7.28;4.10;;;17.40;99.90;;;;;;4988185;28;20038;-79
2021/09/05 09:21:53;;;;;;;13.55;4.50;;;17.40;99.90;;;;;;4987687;28;20022;-79
2021/09/05 09:24:21;;;;;;;6.03;4.10;;;17.50;99.90;;;;;;4983581;28;20038;-79
2021/09/05 09:26:58;;;;;;;8.10;4.72;;;17.50;99.90;;;;;;4978273;28;20027;-78
2021/09/05 09:29:23;;;;;;;8.75;4.70;;;17.60;99.90;;;;;;4982284;28;20027;-73
2021/09/05 09:32:00;;;;;;;7.55;4.22;;;17.60;99.90;;;;;;4986478;28;20033;-73
2021/09/05 09:34:26;;;;;;;7.90;4.82;;;17.70;99.90;;;;;;4982224;28;20470;-75
2021/09/05 09:37:00;;;;;;;9.13;4.68;;;17.80;99.90;;;;;;4991454;28;20062;-72
2021/09/05 09:39:29;;;;;;;15.00;5.47;;;17.90;99.90;;;;;;4987334;28;20680;-73
2021/09/05 09:41:55;;;;;;;10.10;5.82;;;18.00;99.90;;;;;;4991231;28;20058;-73
2021/09/05 09:44:27;;;;;;;12.90;5.43;;;18.00;99.90;;;;;;4985940;28;20645;-73
2021/09/05 09:46:52;;;;;;;10.77;6.30;;;18.00;99.90;;;;;;4992708;28;20054;-74
2021/09/05 09:49:18;;;;;;;10.85;4.93;;;18.00;99.90;;;;;;4989430;28;20046;-73
2021/09/05 09:51:44;;;;;;;11.52;5.50;;;18.00;99.90;;;;;;4989386;28;20549;-74
2021/09/05 09:54:10;;;;;;;9.60;5.43;;;18.00;99.90;;;;;;4991961;28;20384;-74
2021/09/05 09:56:36;;;;;;;9.52;4.70;;;18.10;99.90;;;;;;4980249;28;20374;-74
2021/09/05 09:59:04;;;;;;;12.40;6.03;;;18.20;99.90;;;;;;4985705;28;20080;-75
2021/09/05 10:01:31;;;;;;;52.22;8.75;;;18.20;99.90;;;;;;4986579;28;20069;-76
2021/09/05 10:03:58;;;;;;;12.15;5.38;;;18.30;99.90;;;;;;4988134;28;20037;-76
2021/09/05 10:06:26;;;;;;;12.00;6.03;;;18.40;99.90;;;;;;4983205;28;20030;-73
2021/09/05 10:08:59;;;;;;;13.10;5.75;;;18.40;99.90;;;;;;4987898;28;20385;-73
2021/09/05 10:11:26;;;;;;;12.70;5.93;;;18.50;99.90;;;;;;4988557;28;20370;-73
2021/09/05 10:13:51;;;;;;;12.93;6.60;;;18.50;99.80;;;;;;4987198;28;20058;-73
2021/09/05 10:16:17;;;;;;;11.18;6.15;;;18.60;99.60;;;;;;4992479;28;20031;-73
2021/09/05 10:18:45;;;;;;;10.85;5.88;;;18.70;99.70;;;;;;4988542;28;20019;-73
2021/09/05 10:21:14;;;;;;;9.70;6.10;;;18.80;98.70;;;;;;4989815;28;20027;-74
2021/09/05 10:23:46;;;;;;;10.18;5.25;;;19.00;99.00;;;;;;4989417;28;20030;-84
2021/09/05 10:26:14;;;;;;;13.45;5.85;;;19.30;98.50;;;;;;4985634;28;20124;-78
2021/09/05 10:28:50;;;;;;;14.25;5.85;;;19.40;99.20;;;;;;4989935;28;20030;-80
2021/09/05 10:31:27;;;;;;;8.77;4.95;;;19.60;97.40;;;;;;4990193;28;20109;-72
2021/09/05 10:33:54;;;;;;;9.48;5.10;;;19.80;96.30;;;;;;4989112;28;20050;-73
2021/09/05 10:36:22;;;;;;;11.13;5.88;;;19.80;96.50;;;;;;4988296;28;20035;-73
2021/09/05 10:38:49;;;;;;;9.80;4.53;;;19.80;95.50;;;;;;4985418;28;20514;-73
2021/09/05 10:41:25;;;;;;;9.38;4.88;;;19.80;95.40;;;;;;4980934;28;20091;-73
2021/09/05 10:44:05;;;;;;;12.02;5.60;;;19.90;96.30;;;;;;4989508;28;20129;-73
2021/09/05 10:46:52;;;;;;;12.65;5.25;;;19.90;96.60;;;;;;4989082;28;20109;-73
2021/09/05 10:49:36;;;;;;;8.68;5.50;;;20.00;96.10;;;;;;4989121;28;20030;-74
2021/09/05 10:52:02;;;;;;;13.73;5.82;;;20.20;93.30;;;;;;4990352;28;20216;-73
2021/09/05 10:54:28;;;;;;;9.77;5.15;;;20.50;94.40;;;;;;4992482;28;20048;-75
2021/09/05 10:56:56;;;;;;;11.23;5.50;;;20.70;92.60;;;;;;4979776;28;20057;-75
2021/09/05 10:59:23;;;;;;;9.68;5.53;;;21.00;93.90;;;;;;4987691;28;20125;-75
2021/09/05 11:01:48;;;;;;;9.85;4.55;;;21.30;90.00;;;;;;4988599;28;20111;-77
2021/09/05 11:04:14;;;;;;;9.82;4.60;;;21.30;90.50;;;;;;4986520;28;20034;-75
2021/09/05 11:06:47;;;;;;;11.15;5.55;;;21.30;90.10;;;;;;4990676;28;20034;-75
2021/09/05 11:09:24;;;;;;;11.60;4.65;;;21.20;89.20;;;;;;4987394;28;20067;-73
2021/09/05 11:11:56;;;;;;;7.82;4.72;;;21.20;90.70;;;;;;4982142;28;20076;-74
2021/09/05 11:14:48;;;;;;;10.00;5.15;;;21.50;90.10;;;;;;4985287;28;20121;-74
2021/09/05 11:17:19;;;;;;;10.10;5.15;;;21.70;89.40;;;;;;4977944;28;20092;-74
2021/09/05 11:19:51;;;;;;;9.57;5.07;;;21.70;84.80;;;;;;4991429;28;20030;-73
2021/09/05 11:22:47;;;;;;;9.23;5.65;;;22.00;88.10;;;;;;4993463;28;20034;-72
2021/09/05 11:25:18;;;;;;;9.48;5.07;;;22.40;86.50;;;;;;4988534;28;20129;-73
2021/09/05 11:28:15;;;;;;;9.55;5.28;;;22.60;82.60;;;;;;4988224;28;20481;-74
2021/09/05 11:30:44;;;;;;;10.50;5.20;;;22.90;81.30;;;;;;4988533;28;20433;-73
2021/09/05 11:33:11;;;;;;;11.73;5.35;;;23.20;80.00;;;;;;4985213;28;20054;-74
2021/09/05 11:35:44;;;;;;;8.82;4.80;;;23.20;79.30;;;;;;4994021;28;20030;-74
2021/09/05 11:38:12;;;;;;;10.02;5.22;;;23.10;76.70;;;;;;4987709;28;20477;-74
2021/09/05 11:40:47;;;;;;;10.57;5.53;;;23.00;78.40;;;;;;4988020;28;20097;-73
2021/09/05 11:43:13;;;;;;;10.50;5.30;;;23.10;77.80;;;;;;4990884;28;20027;-73
2021/09/05 11:45:39;;;;;;;9.07;5.30;;;22.90;75.80;;;;;;4987845;28;20069;-73
2021/09/05 11:48:06;;;;;;;9.63;5.85;;;22.80;78.80;;;;;;4989678;28;20034;-73
2021/09/05 11:50:36;;;;;;;17.02;5.05;;;22.90;78.30;;;;;;4986837;28;20029;-86
2021/09/05 11:53:03;;;;;;;8.20;5.17;;;23.00;80.00;;;;;;4990612;28;20105;-74
2021/09/05 11:55:29;;;;;;;10.52;5.63;;;23.00;76.90;;;;;;4986601;28;20043;-73
2021/09/05 11:58:00;;;;;;;11.20;5.28;;;23.20;76.50;;;;;;4985979;28;20037;-73
2021/09/05 12:00:34;;;;;;;13.00;7.97;;;23.70;77.10;;;;;;4987131;28;20110;-73
2021/09/05 12:03:07;;;;;;;27.13;12.85;;;23.70;73.80;;;;;;4981681;28;20030;-73
2021/09/05 12:05:34;;;;;;;16.17;8.95;;;23.70;73.50;;;;;;4988551;28;20027;-72
2021/09/05 12:08:01;;;;;;;23.52;13.35;;;23.70;77.60;;;;;;4986833;28;20385;-72
2021/09/05 12:10:29;;;;;;;35.28;19.70;;;23.70;75.80;;;;;;4983044;28;20050;-73
2021/09/05 12:13:00;;;;;;;70.22;42.88;;;23.80;70.90;;;;;;4989620;28;20035;-73
2021/09/05 12:15:29;;;;;;;60.00;35.63;;;23.70;71.60;;;;;;4988247;28;20049;-74
2021/09/05 12:17:54;;;;;;;49.42;29.77;;;23.90;75.50;;;;;;4983232;28;20039;-73
2021/09/05 12:20:41;;;;;;;35.92;20.40;;;24.30;70.10;;;;;;5074330;27;20373;-72
2021/09/05 12:23:22;;;;;;;34.22;19.23;;;24.50;68.00;;;;;;5062949;28;20025;-71
2021/09/05 12:25:48;;;;;;;56.78;32.40;;;24.30;70.00;;;;;;5061765;28;20083;-72
2021/09/05 12:28:30;;;;;;;133.98;70.45;;;24.10;71.90;;;;;;5063734;28;20021;-73
2021/09/05 12:31:00;;;;;;;381.38;217.77;;;24.30;74.20;;;;;;5063179;28;20028;-72
2021/09/05 12:33:26;;;;;;;174.57;100.57;;;25.20;70.40;;;;;;5065388;28;20036;-73
2021/09/05 12:36:06;;;;;;;626.20;412.98;;;25.50;68.80;;;;;;5063847;28;20024;-71
2021/09/05 12:38:34;;;;;;;555.00;364.20;;;25.80;66.20;;;;;;5061578;28;20040;-71